createdAt,value
2023-02-14T00:00:09.244Z,98.37
2023-02-14T00:02:35.604Z,98.47
2023-02-14T00:05:01.996Z,98.99
2023-02-14T00:07:28.309Z,98.67
2023-02-14T00:09:54.645Z,98.41
2023-02-14T00:12:20.981Z,98.19
2023-02-14T00:15:06.270Z,97.43
2023-02-14T00:17:32.573Z,97.16
2023-02-14T00:19:58.880Z,97.18
2023-02-14T00:22:25.242Z,97.84
2023-02-14T00:24:51.614Z,97.64
2023-02-14T00:27:18.012Z,97.78
2023-02-14T00:29:44.317Z,97.81
2023-02-14T00:32:10.676Z,97.36
2023-02-14T00:34:37.006Z,99.28
2023-02-14T00:37:03.364Z,98.83
2023-02-14T00:39:29.800Z,98.90
2023-02-14T00:41:56.113Z,98.72
2023-02-14T00:44:22.435Z,98.48
2023-02-14T00:46:48.768Z,98.51
2023-02-14T00:49:15.104Z,98.69
2023-02-14T00:51:41.501Z,98.46
2023-02-14T00:54:07.832Z,98.11
2023-02-14T00:56:34.209Z,99.01
2023-02-14T00:59:00.522Z,99.61
2023-02-14T01:01:26.968Z,100.00
2023-02-14T01:03:53.306Z,100.00
2023-02-14T01:06:19.624Z,99.50
2023-02-14T01:08:46.040Z,100.00
2023-02-14T01:11:12.400Z,100.00
2023-02-14T01:13:38.731Z,99.46
2023-02-14T01:16:05.058Z,98.89
2023-02-14T01:18:31.372Z,99.36
2023-02-14T01:20:58.001Z,99.49
2023-02-14T01:23:24.558Z,99.48
2023-02-14T01:25:50.874Z,99.38
2023-02-14T01:28:17.197Z,98.83
2023-02-14T01:30:43.522Z,99.20
2023-02-14T01:33:09.937Z,98.88
2023-02-14T01:35:36.251Z,98.53
2023-02-14T01:38:02.545Z,98.01
2023-02-14T01:40:28.906Z,98.45
2023-02-14T01:42:57.408Z,98.76
2023-02-14T01:45:24.856Z,98.93
2023-02-14T01:47:51.234Z,98.98
2023-02-14T01:50:17.733Z,99.00
2023-02-14T01:52:44.057Z,98.81
2023-02-14T01:55:10.390Z,99.38
2023-02-14T01:57:36.723Z,100.00
2023-02-14T02:00:21.893Z,100.00
2023-02-14T02:02:48.254Z,100.00
2023-02-14T02:05:14.635Z,99.87
2023-02-14T02:07:40.972Z,99.74
2023-02-14T02:10:07.277Z,99.68
2023-02-14T02:12:35.548Z,99.37
2023-02-14T02:15:01.877Z,99.14
2023-02-14T02:17:28.177Z,98.99
2023-02-14T02:19:54.992Z,98.95
2023-02-14T02:22:21.369Z,99.62
2023-02-14T02:24:48.322Z,99.86
2023-02-14T02:27:14.628Z,99.61
2023-02-14T02:29:41.211Z,99.51
2023-02-14T02:32:07.596Z,100.00
2023-02-14T02:34:34.066Z,100.00
2023-02-14T02:37:00.434Z,99.85
2023-02-14T02:39:26.754Z,100.00
2023-02-14T02:41:53.056Z,99.70
2023-02-14T02:44:19.406Z,99.55
2023-02-14T02:46:48.795Z,99.06
2023-02-14T02:49:15.121Z,98.85
2023-02-14T02:52:00.235Z,99.52
2023-02-14T02:54:26.562Z,99.15
2023-02-14T02:56:53.576Z,99.57
2023-02-14T02:59:20.754Z,100.00
2023-02-14T03:01:47.184Z,100.00
2023-02-14T03:04:32.555Z,100.00
2023-02-14T03:06:58.907Z,100.00
2023-02-14T03:09:25.231Z,100.00
2023-02-14T03:11:51.556Z,99.17
2023-02-14T03:14:17.875Z,99.09
2023-02-14T03:16:44.191Z,99.18
2023-02-14T03:19:29.350Z,98.84
2023-02-14T03:21:55.694Z,98.62
2023-02-14T03:24:22.054Z,98.42
2023-02-14T03:26:48.384Z,98.71
2023-02-14T03:29:14.702Z,98.74
2023-02-14T03:31:41.112Z,99.61
2023-02-14T03:34:07.520Z,99.03
2023-02-14T03:36:33.900Z,98.27
2023-02-14T03:39:00.216Z,98.52
2023-02-14T03:41:27.429Z,99.66
2023-02-14T03:43:53.763Z,99.52
2023-02-14T03:46:20.100Z,99.21
2023-02-14T03:48:46.454Z,99.17
2023-02-14T03:51:12.790Z,99.25
2023-02-14T03:53:39.106Z,99.07
2023-02-14T03:56:05.418Z,99.66
2023-02-14T03:58:32.832Z,100.00
2023-02-14T04:00:59.541Z,100.00
2023-02-14T04:03:26.184Z,100.00
2023-02-14T04:05:52.727Z,100.00
2023-02-14T04:08:19.042Z,100.00
2023-02-14T04:10:45.379Z,100.00
2023-02-14T04:13:11.701Z,100.00
2023-02-14T04:15:38.109Z,100.00
2023-02-14T04:18:23.370Z,100.00
2023-02-14T04:20:49.758Z,100.00
2023-02-14T04:23:16.098Z,99.85
2023-02-14T04:25:43.158Z,99.57
2023-02-14T04:28:09.480Z,99.33
2023-02-14T04:30:35.900Z,98.74
2023-02-14T04:33:02.240Z,98.21
2023-02-14T04:35:28.607Z,98.81
2023-02-14T04:37:54.915Z,98.44
2023-02-14T04:40:21.244Z,98.03
2023-02-14T04:42:47.541Z,97.76
2023-02-14T04:45:13.921Z,97.54
2023-02-14T04:47:40.239Z,97.52
2023-02-14T04:50:06.588Z,97.57
2023-02-14T04:52:32.946Z,97.84
2023-02-14T04:54:59.285Z,97.50
2023-02-14T04:57:25.586Z,98.01
2023-02-14T04:59:51.906Z,98.52
2023-02-14T05:02:18.338Z,98.77
2023-02-14T05:04:44.809Z,99.72
2023-02-14T05:07:11.143Z,99.64
2023-02-14T05:09:37.475Z,100.00
2023-02-14T05:12:03.795Z,100.00
2023-02-14T05:14:30.107Z,100.00
2023-02-14T05:16:56.429Z,99.83
2023-02-14T05:19:22.815Z,99.56
2023-02-14T05:21:49.161Z,95.67
2023-02-14T05:24:15.472Z,90.16
2023-02-14T05:26:41.807Z,88.84
2023-02-14T05:29:08.172Z,89.15
2023-02-14T05:31:34.616Z,90.81
2023-02-14T05:34:01.079Z,92.13
2023-02-14T05:36:27.385Z,92.49
2023-02-14T05:38:53.704Z,93.40
2023-02-14T05:41:20.014Z,93.30
2023-02-14T05:43:46.357Z,93.06
2023-02-14T05:46:12.788Z,92.67
2023-02-14T05:48:39.224Z,91.44
2023-02-14T05:51:05.605Z,90.30
2023-02-14T05:53:32.249Z,90.03
2023-02-14T05:55:58.566Z,91.45
2023-02-14T05:58:24.977Z,91.29
2023-02-14T06:00:51.295Z,91.15
2023-02-14T06:03:17.617Z,91.02
2023-02-14T06:05:43.934Z,90.89
2023-02-14T06:08:10.247Z,90.49
2023-02-14T06:10:36.586Z,89.72
2023-02-14T06:13:03.085Z,89.55
2023-02-14T06:15:29.402Z,89.50
2023-02-14T06:17:55.738Z,89.09
2023-02-14T06:20:22.119Z,89.64
2023-02-14T06:22:48.512Z,89.09
2023-02-14T06:25:14.904Z,88.76
2023-02-14T06:27:41.202Z,87.66
2023-02-14T06:30:07.614Z,87.13
2023-02-14T06:32:33.965Z,86.93
2023-02-14T06:35:00.301Z,87.78
2023-02-14T06:37:26.654Z,87.72
2023-02-14T06:39:53.006Z,88.34
2023-02-14T06:42:19.418Z,89.91
2023-02-14T06:44:45.752Z,88.42
2023-02-14T06:47:12.072Z,88.21
2023-02-14T06:49:39.479Z,88.06
2023-02-14T06:52:05.860Z,87.25
2023-02-14T06:54:32.155Z,86.81
2023-02-14T06:56:58.481Z,85.66
2023-02-14T06:59:24.791Z,86.61
2023-02-14T07:01:51.159Z,86.30
2023-02-14T07:04:17.910Z,85.63
2023-02-14T07:06:44.224Z,87.23
2023-02-14T07:09:10.565Z,87.41
2023-02-14T07:11:36.892Z,87.06
2023-02-14T07:14:03.268Z,86.99
2023-02-14T07:16:29.665Z,86.09
2023-02-14T07:18:55.994Z,86.24
2023-02-14T07:21:22.366Z,85.35
2023-02-14T07:23:50.114Z,85.87
2023-02-14T07:26:18.312Z,86.48
2023-02-14T07:28:45.214Z,86.52
2023-02-14T07:31:12.081Z,85.50
2023-02-14T07:33:38.429Z,86.59
2023-02-14T07:36:04.819Z,86.99
2023-02-14T07:38:31.210Z,85.26
2023-02-14T07:40:57.611Z,85.19
2023-02-14T07:43:24.087Z,85.28
2023-02-14T07:45:50.405Z,84.54
2023-02-14T07:48:16.722Z,83.84
2023-02-14T07:50:43.054Z,84.02
2023-02-14T07:53:09.429Z,84.10
2023-02-14T07:55:35.736Z,83.64
2023-02-14T07:58:02.073Z,83.23
2023-02-14T08:00:28.438Z,82.33
2023-02-14T08:02:56.132Z,82.62
2023-02-14T08:05:22.506Z,85.58
2023-02-14T08:07:48.928Z,84.10
2023-02-14T08:10:15.336Z,83.88
2023-02-14T08:13:00.187Z,85.48
2023-02-14T08:15:45.747Z,84.21
2023-02-14T08:18:12.204Z,84.02
2023-02-14T08:20:38.556Z,85.53
2023-02-14T08:23:04.934Z,84.90
2023-02-14T08:25:31.292Z,84.95
2023-02-14T08:27:57.638Z,83.75
2023-02-14T08:30:24.046Z,83.25
2023-02-14T08:32:50.509Z,83.41
2023-02-14T08:35:16.867Z,83.79
2023-02-14T08:37:43.169Z,83.41
2023-02-14T08:40:09.495Z,81.02
2023-02-14T08:42:35.841Z,80.71
2023-02-14T08:45:02.201Z,82.41
2023-02-14T08:47:28.534Z,82.12
2023-02-14T08:49:54.860Z,83.54
2023-02-14T08:52:21.182Z,82.35
2023-02-14T08:54:47.555Z,82.35
2023-02-14T08:57:15.625Z,81.71
2023-02-14T08:59:41.964Z,81.96
2023-02-14T09:02:08.269Z,80.76
2023-02-14T09:04:34.660Z,80.35
2023-02-14T09:07:01.078Z,80.05
2023-02-14T09:09:27.467Z,79.51
2023-02-14T09:11:53.956Z,79.12
2023-02-14T09:14:21.063Z,80.13
2023-02-14T09:16:47.535Z,83.31
2023-02-14T09:19:13.918Z,82.53
2023-02-14T09:21:40.285Z,82.25
2023-02-14T09:24:06.615Z,83.62
2023-02-14T09:26:32.917Z,84.09
2023-02-14T09:28:59.257Z,83.37
2023-02-14T09:31:25.695Z,82.34
2023-02-14T09:33:52.255Z,82.80
2023-02-14T09:36:37.421Z,82.12
2023-02-14T09:39:03.768Z,81.93
2023-02-14T09:41:30.077Z,83.07
2023-02-14T09:43:56.394Z,81.84
2023-02-14T09:46:22.744Z,80.51
2023-02-14T09:48:49.116Z,80.46
2023-02-14T09:51:15.467Z,79.43
2023-02-14T09:53:41.823Z,80.20
2023-02-14T09:56:08.259Z,79.92
2023-02-14T09:58:35.310Z,81.80
2023-02-14T10:01:01.942Z,81.85
2023-02-14T10:03:28.567Z,80.51
2023-02-14T10:05:55.481Z,80.25
2023-02-14T10:08:21.835Z,79.51
2023-02-14T10:10:48.159Z,79.89
2023-02-14T10:13:14.981Z,78.97
2023-02-14T10:15:41.312Z,79.05
2023-02-14T10:18:07.640Z,78.87
2023-02-14T10:20:33.948Z,78.62
2023-02-14T10:23:00.314Z,80.18
2023-02-14T10:25:26.657Z,80.07
2023-02-14T10:27:52.996Z,79.49
2023-02-14T10:30:19.379Z,79.94
2023-02-14T10:32:45.752Z,80.56
2023-02-14T10:35:12.073Z,79.89
2023-02-14T10:37:38.481Z,80.63
2023-02-14T10:40:05.994Z,80.76
2023-02-14T10:42:32.321Z,80.84
2023-02-14T10:44:58.883Z,80.58
2023-02-14T10:47:25.341Z,80.50
2023-02-14T10:49:51.654Z,80.23
2023-02-14T10:52:18.064Z,80.16
2023-02-14T10:54:44.360Z,80.41
2023-02-14T10:57:10.679Z,78.99
2023-02-14T10:59:36.991Z,81.64
2023-02-14T11:02:03.351Z,82.61
2023-02-14T11:04:29.674Z,81.08
2023-02-14T11:06:56.030Z,80.73
2023-02-14T11:09:22.514Z,81.78
2023-02-14T11:11:48.890Z,81.07
2023-02-14T11:14:16.738Z,79.64
2023-02-14T11:16:43.670Z,79.58
2023-02-14T11:19:10.121Z,80.31
2023-02-14T11:21:36.494Z,81.05
2023-02-14T11:24:02.796Z,80.00
2023-02-14T11:26:29.111Z,79.23
2023-02-14T11:28:55.497Z,78.88
2023-02-14T11:31:21.878Z,80.20
2023-02-14T11:33:50.927Z,80.99
2023-02-14T11:36:18.148Z,80.82
2023-02-14T11:38:44.455Z,81.00
2023-02-14T11:41:10.782Z,80.83
2023-02-14T11:43:37.290Z,81.35
2023-02-14T11:46:03.741Z,81.74
2023-02-14T11:48:38.177Z,80.94
2023-02-14T11:51:05.384Z,80.66
2023-02-14T11:53:31.697Z,80.58
2023-02-14T11:55:58.062Z,80.52
2023-02-14T11:58:24.375Z,79.89
2023-02-14T12:00:50.707Z,79.27
2023-02-14T12:03:17.053Z,79.74
2023-02-14T12:05:43.448Z,79.45
2023-02-14T12:08:09.765Z,79.03
2023-02-14T12:10:36.112Z,78.91
2023-02-14T12:13:02.544Z,78.43
2023-02-14T12:15:29.335Z,78.34
2023-02-14T12:17:55.686Z,78.26
2023-02-14T12:20:22.007Z,78.14
2023-02-14T12:22:48.321Z,77.57
2023-02-14T12:25:14.710Z,78.09
2023-02-14T12:27:41.065Z,77.59
2023-02-14T12:30:07.889Z,77.64
2023-02-14T12:32:34.214Z,76.91
2023-02-14T12:35:00.541Z,77.26
2023-02-14T12:37:27.497Z,77.38
2023-02-14T12:39:54.461Z,78.03
2023-02-14T12:42:20.861Z,77.62
2023-02-14T12:44:47.201Z,77.52
2023-02-14T12:47:13.511Z,76.92
2023-02-14T12:49:39.825Z,77.09
2023-02-14T12:52:06.229Z,77.32
2023-02-14T12:54:32.590Z,77.00
2023-02-14T12:56:58.950Z,78.06
2023-02-14T12:59:25.338Z,77.85
2023-02-14T13:01:51.764Z,76.44
2023-02-14T13:04:18.138Z,77.21
2023-02-14T13:06:44.491Z,77.12
2023-02-14T13:09:10.808Z,76.84
2023-02-14T13:11:37.133Z,75.55
2023-02-14T13:14:04.727Z,76.01
2023-02-14T13:16:31.562Z,75.37
2023-02-14T13:18:58.023Z,73.76
2023-02-14T13:21:24.341Z,74.90
2023-02-14T13:23:52.947Z,74.75
2023-02-14T13:26:19.316Z,74.57
2023-02-14T13:28:45.673Z,75.34
2023-02-14T13:31:12.320Z,75.08
2023-02-14T13:33:38.720Z,74.36
2023-02-14T13:36:05.141Z,74.90
2023-02-14T13:38:31.956Z,76.19
2023-02-14T13:40:58.560Z,75.48
2023-02-14T13:43:24.957Z,75.17
2023-02-14T13:45:51.841Z,76.29
2023-02-14T13:48:18.540Z,77.72
2023-02-14T13:50:44.878Z,77.97
2023-02-14T13:53:11.219Z,76.81
2023-02-14T13:55:37.608Z,77.03
2023-02-14T13:58:03.983Z,76.45
2023-02-14T14:00:30.298Z,75.73
2023-02-14T14:02:56.642Z,75.96
2023-02-14T14:05:22.974Z,76.59
2023-02-14T14:07:49.282Z,77.05
2023-02-14T14:10:15.622Z,75.96
2023-02-14T14:12:42.022Z,77.55
2023-02-14T14:15:08.357Z,76.87
2023-02-14T14:17:34.680Z,77.44
2023-02-14T14:20:01.211Z,77.44
2023-02-14T14:22:27.601Z,77.46
2023-02-14T14:24:54.236Z,76.98
2023-02-14T14:27:21.229Z,77.38
2023-02-14T14:29:47.592Z,77.14
2023-02-14T14:32:18.230Z,76.76
2023-02-14T14:34:44.564Z,77.98
2023-02-14T14:37:10.907Z,78.35
2023-02-14T14:39:39.948Z,78.82
2023-02-14T14:42:07.039Z,78.57
2023-02-14T14:44:33.424Z,77.60
2023-02-14T14:46:59.817Z,78.11
2023-02-14T14:49:26.127Z,77.96
2023-02-14T14:51:52.451Z,77.46
2023-02-14T14:54:18.786Z,77.99
2023-02-14T14:56:45.109Z,77.37
2023-02-14T14:59:11.454Z,78.13
2023-02-14T15:01:37.790Z,79.15
2023-02-14T15:04:04.634Z,79.32
2023-02-14T15:06:30.959Z,79.23
2023-02-14T15:08:57.276Z,80.32
2023-02-14T15:11:42.470Z,80.33
2023-02-14T15:14:09.405Z,80.08
2023-02-14T15:16:35.927Z,80.49
2023-02-14T15:19:02.310Z,80.32
2023-02-14T15:21:28.642Z,80.76
2023-02-14T15:23:55.026Z,80.33
2023-02-14T15:26:21.529Z,80.08
2023-02-14T15:28:47.876Z,79.66
2023-02-14T15:31:14.237Z,79.46
2023-02-14T15:33:40.626Z,80.14
2023-02-14T15:36:06.962Z,80.63
2023-02-14T15:38:33.949Z,81.38
2023-02-14T15:41:00.687Z,81.13
2023-02-14T15:43:29.694Z,80.85
2023-02-14T15:45:58.138Z,80.64
2023-02-14T15:48:24.473Z,81.49
2023-02-14T15:50:50.783Z,82.09
2023-02-14T15:53:17.409Z,81.92
2023-02-14T15:55:44.595Z,82.40
2023-02-14T15:58:10.962Z,82.16
2023-02-14T16:00:37.301Z,82.20
2023-02-14T16:03:03.767Z,82.42
2023-02-14T16:05:30.122Z,82.21
2023-02-14T16:07:56.464Z,82.73
2023-02-14T16:10:22.836Z,83.07
2023-02-14T16:12:49.142Z,83.51
2023-02-14T16:15:15.553Z,83.66
2023-02-14T16:17:44.110Z,83.98
2023-02-14T16:20:10.441Z,84.86
2023-02-14T16:22:38.383Z,85.31
2023-02-14T16:25:04.689Z,85.25
2023-02-14T16:27:31.025Z,85.47
2023-02-14T16:29:57.382Z,85.53
2023-02-14T16:32:23.866Z,85.90
2023-02-14T16:34:50.269Z,86.01
2023-02-14T16:37:16.627Z,86.47
2023-02-14T16:39:42.930Z,87.38
2023-02-14T16:42:09.269Z,87.77
2023-02-14T16:44:35.601Z,87.27
2023-02-14T16:47:01.957Z,87.11
2023-02-14T16:49:28.255Z,87.48
2023-02-14T16:51:55.453Z,88.18
2023-02-14T16:54:21.816Z,87.80
2023-02-14T16:56:48.135Z,88.24
2023-02-14T16:59:14.529Z,89.00
2023-02-14T17:01:41.163Z,89.44
2023-02-14T17:04:07.523Z,89.81
2023-02-14T17:06:33.903Z,90.28
2023-02-14T17:09:00.240Z,90.06
2023-02-14T17:11:26.626Z,90.47
2023-02-14T17:13:52.938Z,91.28
2023-02-14T17:16:19.308Z,91.98
2023-02-14T17:18:47.593Z,91.62
2023-02-14T17:21:13.977Z,92.07
2023-02-14T17:23:40.283Z,91.93
2023-02-14T17:26:07.159Z,92.38
2023-02-14T17:28:33.488Z,92.01
2023-02-14T17:31:00.916Z,92.42
2023-02-14T17:33:27.656Z,91.92
2023-02-14T17:35:53.963Z,92.17
2023-02-14T17:38:21.551Z,92.81
2023-02-14T17:40:47.862Z,93.33
2023-02-14T17:43:14.183Z,92.43
2023-02-14T17:45:40.491Z,92.26
2023-02-14T17:48:06.832Z,92.34
2023-02-14T17:50:33.131Z,92.72
2023-02-14T17:52:59.458Z,92.57
2023-02-14T17:55:25.901Z,93.17
2023-02-14T17:57:52.697Z,92.99
2023-02-14T18:00:19.850Z,92.83
2023-02-14T18:02:46.181Z,92.95
2023-02-14T18:05:12.529Z,93.09
2023-02-14T18:07:38.892Z,92.77
2023-02-14T18:10:05.226Z,92.87
2023-02-14T18:12:31.582Z,93.11
2023-02-14T18:14:57.918Z,93.53
2023-02-14T18:17:24.314Z,93.34
2023-02-14T18:19:50.640Z,93.46
2023-02-14T18:22:16.961Z,94.08
2023-02-14T18:24:43.310Z,94.17
2023-02-14T18:27:09.669Z,93.87
2023-02-14T18:29:36.055Z,94.78
2023-02-14T18:32:02.419Z,94.78
2023-02-14T18:34:29.181Z,94.86
2023-02-14T18:36:55.678Z,94.91
2023-02-14T18:39:21.997Z,94.90
2023-02-14T18:41:48.310Z,95.11
2023-02-14T18:44:14.789Z,95.22
2023-02-14T18:46:41.108Z,95.60
2023-02-14T18:49:08.513Z,95.88
2023-02-14T18:51:34.846Z,95.75
2023-02-14T18:54:01.234Z,96.11
2023-02-14T18:56:28.835Z,96.46
2023-02-14T18:58:55.208Z,96.39
2023-02-14T19:01:21.625Z,96.74
2023-02-14T19:03:49.682Z,97.22
2023-02-14T19:06:16.014Z,96.85
2023-02-14T19:08:42.404Z,96.85
2023-02-14T19:11:08.747Z,96.50
2023-02-14T19:13:35.053Z,96.69
2023-02-14T19:16:01.461Z,97.26
2023-02-14T19:18:27.857Z,97.77
2023-02-14T19:20:54.174Z,97.61
2023-02-14T19:23:20.498Z,97.53
2023-02-14T19:25:46.810Z,97.75
2023-02-14T19:28:13.598Z,97.63
2023-02-14T19:30:39.988Z,97.75
2023-02-14T19:33:06.976Z,98.61
2023-02-14T19:35:33.316Z,98.33
2023-02-14T19:38:03.500Z,98.69
2023-02-14T19:40:30.167Z,98.05
2023-02-14T19:42:56.490Z,98.11
2023-02-14T19:45:22.816Z,98.61
2023-02-14T19:47:49.574Z,98.29
2023-02-14T19:50:15.996Z,98.62
2023-02-14T19:52:43.966Z,99.47
2023-02-14T19:55:10.296Z,99.59
2023-02-14T19:57:36.646Z,99.65
2023-02-14T20:00:04.115Z,99.81
2023-02-14T20:02:30.460Z,100.00
2023-02-14T20:04:59.372Z,100.00
2023-02-14T20:07:25.900Z,100.00
2023-02-14T20:09:52.240Z,100.00
2023-02-14T20:12:18.595Z,100.00
2023-02-14T20:14:51.348Z,100.00
2023-02-14T20:17:18.224Z,100.00
2023-02-14T20:19:44.575Z,100.00
2023-02-14T20:22:10.895Z,100.00
2023-02-14T20:24:37.202Z,100.00
2023-02-14T20:27:03.532Z,100.00
2023-02-14T20:29:30.035Z,100.00
2023-02-14T20:31:58.152Z,100.00
2023-02-14T20:34:24.525Z,100.00
2023-02-14T20:36:55.346Z,100.00
2023-02-14T20:39:21.738Z,100.00
2023-02-14T20:41:50.326Z,100.00
2023-02-14T20:44:19.784Z,100.00
2023-02-14T20:46:46.087Z,100.00
2023-02-14T20:49:12.538Z,100.00
2023-02-14T20:51:38.852Z,100.00
2023-02-14T20:54:05.212Z,100.00
2023-02-14T20:56:31.519Z,100.00
2023-02-14T20:58:57.839Z,100.00
2023-02-14T21:01:24.221Z,100.00
2023-02-14T21:03:50.926Z,100.00
2023-02-14T21:06:17.292Z,100.00
2023-02-14T21:08:43.683Z,100.00
2023-02-14T21:11:10.024Z,100.00
2023-02-14T21:13:36.332Z,100.00
2023-02-14T21:16:02.898Z,100.00
2023-02-14T21:18:29.227Z,100.00
2023-02-14T21:20:56.050Z,100.00
2023-02-14T21:23:22.497Z,100.00
2023-02-14T21:25:48.808Z,100.00
2023-02-14T21:28:15.131Z,100.00
2023-02-14T21:30:41.507Z,100.00
2023-02-14T21:33:07.931Z,100.00
2023-02-14T21:35:34.248Z,100.00
2023-02-14T21:38:00.571Z,100.00
2023-02-14T21:40:26.946Z,100.00
2023-02-14T21:42:53.263Z,100.00
2023-02-14T21:45:38.382Z,100.00
2023-02-14T21:48:23.368Z,100.00
2023-02-14T21:50:49.693Z,100.00
2023-02-14T21:53:16.067Z,100.00
2023-02-14T21:55:42.959Z,100.00
2023-02-14T21:58:09.280Z,100.00
2023-02-14T22:00:35.710Z,100.00
2023-02-14T22:03:02.033Z,100.00
2023-02-14T22:05:28.391Z,100.00
2023-02-14T22:07:54.706Z,100.00
2023-02-14T22:10:21.036Z,100.00
2023-02-14T22:12:47.370Z,100.00
2023-02-14T22:15:13.677Z,100.00
2023-02-14T22:17:39.998Z,100.00
2023-02-14T22:20:06.365Z,100.00
2023-02-14T22:22:32.686Z,100.00
2023-02-14T22:24:59.005Z,100.00
2023-02-14T22:27:25.366Z,100.00
2023-02-14T22:29:51.728Z,100.00
2023-02-14T22:32:18.150Z,100.00
2023-02-14T22:34:44.613Z,100.00
2023-02-14T22:37:10.966Z,100.00
2023-02-14T22:39:37.303Z,100.00
2023-02-14T22:42:06.885Z,100.00
2023-02-14T22:44:33.248Z,100.00
2023-02-14T22:46:59.592Z,100.00
2023-02-14T22:49:25.918Z,100.00
2023-02-14T22:51:52.239Z,100.00
2023-02-14T22:54:18.638Z,100.00
2023-02-14T22:56:44.998Z,100.00
2023-02-14T22:59:11.348Z,100.00
2023-02-14T23:01:37.805Z,100.00
2023-02-14T23:04:04.204Z,100.00
2023-02-14T23:06:30.589Z,100.00
2023-02-14T23:08:57.180Z,100.00
2023-02-14T23:11:23.527Z,100.00
2023-02-14T23:14:08.754Z,100.00
2023-02-14T23:16:53.642Z,100.00
2023-02-14T23:19:38.777Z,100.00
2023-02-14T23:22:05.120Z,100.00
2023-02-14T23:24:31.446Z,100.00
2023-02-14T23:26:57.825Z,100.00
2023-02-14T23:29:24.199Z,100.00
2023-02-14T23:31:50.673Z,100.00
2023-02-14T23:34:17.145Z,100.00
2023-02-14T23:36:43.462Z,100.00
2023-02-14T23:39:09.788Z,100.00
2023-02-14T23:41:48.588Z,100.00
2023-02-14T23:44:14.906Z,100.00
2023-02-14T23:46:41.211Z,100.00
2023-02-14T23:49:07.599Z,100.00
2023-02-14T23:51:33.990Z,100.00
2023-02-14T23:54:00.320Z,100.00
2023-02-14T23:56:26.685Z,100.00
2023-02-14T23:58:53.021Z,100.00
